Latest Weather Observations for Rockhampton

IDQ60801

Issued at 11:52 am EST Friday 4 December 2020 (issued every 10 minutes, with the page automatically refreshed every 10 minutes)

About weather observations | Map of weather stations | Latest weather observations for QLD | Other Formats
Station Details ID: 039083 Name: ROCKHAMPTON AERO Lat: -23.38 Lon: 150.48 Height: 10.4 m
Data from the previous 72 hours. | See also: Recent months at Rockhampton
Date/Time
EST
Temp
°C
App
Temp
°C
Dew
Point
°C
Rel
Hum
%
Delta-T
°C
Wind Press
QNH
hPa
Press
MSL
hPa
Rain since
9am
mm
Dir  Spd
km/h
Gust
km/h
Spd
kts
Gust
kts
04/11:30am 31.7 30.7 15.6 37 10.0 ESE 15 22 8 12 1015.2 1015.1 0.0
04/11:00am 31.5 30.5 15.5 38 9.9 ENE 15 20 8 11 1015.7 1015.6 0.0
04/10:30am 31.7 32.3 16.8 40 9.4 ESE 9 17 5 9 1016.2 1016.1 0.0
04/10:00am 30.7 30.5 16.7 43 8.8 E 13 20 7 11 1016.6 1016.5 0.0
04/09:30am 30.2 30.1 16.9 44 8.4 ESE 13 22 7 12 1016.9 1016.8 0.0
04/09:00am 29.6 30.1 18.4 51 7.2 SE 13 19 7 10 1017.0 1016.9 0.0
04/08:30am 28.2 29.1 18.3 55 6.3 E 11 20 6 11 1017.4 1017.3 0.0
04/08:00am 28.8 29.5 18.9 55 6.4 ESE 13 20 7 11 1017.4 1017.3 0.0
04/07:30am 27.9 29.5 19.1 58 5.7 ESE 9 15 5 8 1017.5 1017.4 0.0
04/07:00am 26.0 27.5 18.9 65 4.5 SE 9 11 5 6 1017.6 1017.5 0.0
04/06:30am 24.3 26.2 18.9 72 3.4 SSE 7 11 4 6 1017.5 1017.4 0.0
04/06:00am 23.1 25.3 19.1 78 2.5 SSE 6 9 3 5 1017.1 1017.0 0.0
04/05:30am 22.0 25.3 19.0 83 1.9 CALM 0 0 0 0 1016.9 1016.8 0.0
04/05:00am 21.5 22.8 18.5 83 1.9 SSW 9 11 5 6 1016.9 1016.8 0.0
04/04:30am 22.4 24.4 19.2 82 2.0 SE 7 9 4 5 1016.7 1016.6 0.0
04/04:00am 22.4 23.6 19.0 81 2.2 ESE 11 17 6 9 1016.6 1016.5 0.0
04/03:30am 23.2 24.5 19.2 78 2.5 ESE 11 13 6 7 1016.5 1016.4 0.0
04/03:00am 23.1 24.3 19.1 78 2.5 SE 11 15 6 8 1016.5 1016.4 0.0
04/02:30am 22.5 23.6 18.9 80 2.3 SE 11 15 6 8 1016.6 1016.5 0.0
04/02:00am 23.0 24.7 18.5 76 2.8 SE 7 9 4 5 1016.7 1016.6 0.0
04/01:30am 23.1 24.5 18.6 76 2.8 SE 9 11 5 6 1016.7 1016.6 0.0
04/01:00am 23.7 25.5 18.8 74 3.1 E 7 9 4 5 1017.0 1016.9 0.0
04/12:30am 23.6 25.4 18.7 74 3.1 ENE 7 9 4 5 1017.0 1016.9 0.0
04/12:00am 23.4 26.4 18.5 74 3.1 CALM 0 0 0 0 1017.5 1017.4 0.0
 
Date/Time
EST
Temp
°C
App
Temp
°C
Dew
Point
°C
Rel
Hum
%
Delta-T
°C
Wind Press
QNH
hPa
Press
MSL
hPa
Rain since
9am
mm
Dir  Spd
km/h
Gust
km/h
Spd
kts
Gust
kts
03/11:30pm 23.9 25.7 18.3 71 3.5 SE 6 9 3 5 1017.6 1017.5 0.0
03/11:00pm 24.3 26.2 18.5 70 3.7 ESE 6 9 3 5 1017.6 1017.5 0.0
03/10:30pm 24.4 26.1 18.6 70 3.7 ESE 7 9 4 5 1017.8 1017.7 0.0
03/10:00pm 24.8 26.5 18.5 68 4.0 ESE 7 11 4 6 1017.6 1017.5 0.0
03/09:30pm 25.0 26.3 18.4 66 4.2 ESE 9 13 5 7 1017.5 1017.4 0.0
03/09:00pm 25.4 26.8 18.6 66 4.3 ESE 9 13 5 7 1017.3 1017.2 0.0
03/08:30pm 25.6 27.1 18.8 66 4.3 E 9 17 5 9 1017.0 1016.9 0.0
03/08:00pm 25.7 26.3 18.6 65 4.5 E 13 20 7 11 1016.7 1016.6 0.0
03/07:30pm 25.9 27.0 18.8 65 4.5 ENE 11 19 6 10 1016.6 1016.5 0.0
03/07:00pm 26.2 26.6 18.1 61 5.1 E 13 20 7 11 1016.2 1016.1 0.0
03/06:30pm 26.7 26.6 17.8 58 5.6 E 15 20 8 11 1015.9 1015.8 0.0
03/06:00pm 27.7 27.0 17.3 53 6.5 E 17 22 9 12 1015.6 1015.5 0.0
03/05:30pm 28.5 27.5 16.7 48 7.4 ENE 17 26 9 14 1015.3 1015.2 0.0
03/05:00pm 29.5 29.0 17.0 47 7.9 ENE 15 26 8 14 1015.1 1015.0 0.0
03/04:30pm 29.9 28.1 15.6 42 8.8 E 19 30 10 16 1015.1 1015.0 0.0
03/04:00pm 30.8 29.6 16.0 40 9.2 E 17 28 9 15 1014.8 1014.7 0.0
03/03:30pm 30.9 29.6 15.7 39 9.4 E 17 24 9 13 1014.9 1014.8 0.0
03/03:00pm 30.7 29.2 15.2 39 9.5 E 17 26 9 14 1015.0 1014.9 0.0
03/02:30pm 31.9 30.0 14.1 34 10.8 E 17 24 9 13 1015.2 1015.1 0.0
03/02:00pm 32.1 29.7 12.8 30 11.5 ESE 17 24 9 13 1015.3 1015.2 0.0
03/01:30pm 31.9 29.9 12.7 31 11.4 ESE 15 24 8 13 1015.7 1015.6 0.0
03/01:00pm 31.1 28.9 13.4 34 10.6 ENE 17 28 9 15 1016.1 1016.0 0.0
03/12:30pm 31.5 28.1 11.3 29 11.7 ENE 20 33 11 18 1016.5 1016.4 0.0
03/12:00pm 31.3 27.7 10.6 28 11.9 E 20 32 11 17 1017.0 1016.9 0.0
03/11:30am 31.3 28.2 12.2 31 11.2 E 20 33 11 18 1017.2 1017.1 0.0
03/11:00am 30.7 28.3 13.9 36 10.1 E 19 32 10 17 1017.4 1017.3 0.0
03/10:30am 29.7 27.8 16.8 45 8.1 E 22 35 12 19 1017.6 1017.5 0.0
03/10:00am 28.9 28.0 17.7 50 7.1 ENE 19 30 10 16 1017.7 1017.6 0.0
03/09:30am 28.1 27.2 18.2 55 6.3 E 20 30 11 16 1017.7 1017.6 0.0
03/09:00am 28.7 27.7 17.9 52 6.9 E 20 32 11 17 1017.6 1017.5 0.0
03/08:30am 28.3 27.4 18.1 54 6.5 E 20 32 11 17 1017.7 1017.6 0.0
03/08:00am 27.3 26.3 18.0 56 5.9 E 20 33 11 18 1017.7 1017.6 0.0
03/07:30am 27.4 26.4 17.6 55 6.2 E 19 30 10 16 1017.7 1017.6 0.0
03/07:00am 27.2 26.6 18.5 59 5.5 E 19 26 10 14 1017.7 1017.6 0.0
03/06:30am 26.5 26.4 19.6 66 4.5 ESE 19 26 10 14 1017.7 1017.6 0.0
03/06:00am 25.6 26.6 19.5 69 3.9 ESE 13 22 7 12 1017.6 1017.5 0.0
03/05:30am 25.6 26.1 19.3 68 4.0 E 15 24 8 13 1017.4 1017.3 0.0
03/05:00am 25.6 27.1 19.7 70 3.8 E 11 15 6 8 1017.3 1017.2 0.0
03/04:30am 25.4 26.8 20.4 74 3.3 E 13 20 7 11 1016.7 1016.6 0.0
03/04:00am 25.5 27.1 21.4 78 2.7 E 15 24 8 13 1016.4 1016.3 0.0
03/03:30am 25.6 28.0 21.5 78 2.7 E 11 19 6 10 1016.2 1016.1 0.0
03/03:00am 25.5 27.8 21.4 78 2.7 ENE 11 19 6 10 1015.9 1015.8 0.0
03/02:30am 26.0 28.3 21.4 76 3.1 ENE 11 19 6 10 1015.6 1015.5 0.0
03/02:00am 25.4 30.2 22.1 82 2.2 CALM 0 0 0 0 1015.1 1015.0 0.0
03/01:30am 25.0 29.2 22.5 86 1.7 N 4 7 2 4 1014.9 1014.8 0.0
03/01:00am 24.7 27.8 22.2 86 1.7 N 9 11 5 6 1015.0 1014.9 0.0
03/12:58am 24.7 27.9 22.4 87 1.5 NNE 9 11 5 6 1015.0 1014.9 0.0
03/12:37am 25.1 26.8 21.6 81 2.3 NE 15 24 8 13 1015.3 1015.2 0.0
03/12:30am 26.5 28.9 21.5 74 3.3 NNE 11 17 6 9 1015.2 1015.1 0.0
03/12:00am 26.7 28.9 21.2 72 3.6 NNE 11 17 6 9 1015.3 1015.2 0.0
 
Date/Time
EST
Temp
°C
App
Temp
°C
Dew
Point
°C
Rel
Hum
%
Delta-T
°C
Wind Press
QNH
hPa
Press
MSL
hPa
Rain since
9am
mm
Dir  Spd
km/h
Gust
km/h
Spd
kts
Gust
kts
02/11:30pm 26.6 28.0 21.1 72 3.6 NE 15 19 8 10 1015.7 1015.6 0.0
02/11:00pm 26.1 28.8 21.3 75 3.2 NNE 9 13 5 7 1016.0 1015.9 0.0
02/10:30pm 26.0 28.9 21.7 77 2.9 NNE 9 13 5 7 1016.2 1016.1 0.0
02/10:00pm 26.1 28.9 21.5 76 3.1 NNE 9 15 5 8 1016.1 1016.0 0.0
02/09:30pm 26.4 28.8 21.6 75 3.2 NNE 11 15 6 8 1015.9 1015.8 0.0
02/09:00pm 26.6 28.3 21.6 74 3.3 NNE 15 20 8 11 1015.7 1015.6 0.0
02/08:30pm 26.8 28.5 21.6 73 3.5 NNE 15 20 8 11 1015.4 1015.3 0.0
02/08:00pm 27.2 28.3 21.2 69 4.0 NNE 17 20 9 11 1014.9 1014.8 0.0
02/07:30pm 27.3 28.8 21.3 69 4.0 NNE 15 20 8 11 1014.7 1014.6 0.0
02/07:00pm 27.7 28.7 21.0 67 4.4 NNE 17 24 9 13 1014.3 1014.2 0.0
02/06:30pm 28.1 28.6 21.1 65 4.7 NNE 20 28 11 15 1013.9 1013.8 0.0
02/06:00pm 29.3 29.2 20.7 59 5.7 NNE 22 32 12 17 1013.5 1013.4 0.0
02/05:30pm 30.6 30.0 20.5 54 6.7 NNE 24 32 13 17 1013.2 1013.1 0.0
02/05:00pm 32.2 31.6 20.5 50 7.8 NNE 24 33 13 18 1012.7 1012.6 0.0
02/04:30pm 33.2 33.1 20.7 47 8.4 NE 22 30 12 16 1012.6 1012.5 0.0
02/04:00pm 33.9 34.1 20.6 45 8.9 NE 20 30 11 16 1012.3 1012.2 0.0
02/03:30pm 34.5 33.9 20.5 44 9.4 NNE 24 33 13 18 1012.2 1012.1 0.0
02/03:00pm 34.9 35.2 20.8 43 9.5 NNE 20 30 11 16 1012.3 1012.2 0.0
02/02:30pm 35.6 36.8 21.5 44 9.6 NE 17 28 9 15 1012.4 1012.3 0.0
02/02:00pm 35.3 36.6 21.6 45 9.3 ENE 17 28 9 15 1012.7 1012.6 0.0
02/01:30pm 34.7 35.5 21.4 46 9.0 ENE 19 28 10 15 1012.8 1012.7 0.0
02/01:00pm 35.7 37.3 19.2 38 10.9 NNE 9 19 5 10 1012.9 1012.8 0.0
02/12:30pm 35.8 37.7 19.7 39 10.7 NNW 9 13 5 7 1013.1 1013.0 0.0
02/12:00pm 34.0 35.9 18.9 41 9.9 NNW 7 11 4 6 1013.6 1013.5 0.0
02/11:30am 33.9 35.9 19.2 42 9.7 WNW 7 15 4 8 1013.8 1013.7 0.0
02/11:00am 33.5 34.9 19.6 44 9.2 W 11 17 6 9 1014.2 1014.1 0.0
02/10:30am 32.1 34.2 19.0 45 8.6 NNW 6 15 3 8 1014.5 1014.4 0.0
02/10:00am 32.0 34.2 19.6 47 8.2 NNW 7 20 4 11 1014.9 1014.8 0.0
02/09:30am 31.6 33.3 20.2 50 7.6 N 11 15 6 8 1015.1 1015.0 0.0
02/09:00am 29.8 31.2 20.4 57 6.2 N 13 20 7 11 1015.3 1015.2 0.0
02/08:30am 29.6 32.1 21.0 60 5.7 NNW 9 17 5 9 1015.3 1015.2 0.0
02/08:00am 28.9 30.3 21.1 62 5.2 NNW 15 24 8 13 1014.8 1014.7 0.0
02/07:30am 27.6 29.8 21.2 68 4.3 NNW 11 19 6 10 1015.0 1014.9 0.0
02/07:00am 27.1 30.4 21.8 73 3.5 N 7 13 4 7 1015.1 1015.0 0.0
02/06:30am 26.6 31.2 21.8 75 3.2 CALM 0 0 0 0 1014.7 1014.6 0.0
02/06:00am 24.8 29.3 21.5 82 2.2 CALM 0 0 0 0 1014.4 1014.3 0.0
02/05:30am 23.5 27.7 21.0 86 1.6 CALM 0 0 0 0 1014.2 1014.1 0.0
02/05:00am 22.9 26.6 20.8 88 1.4 SSE 2 6 1 3 1013.9 1013.8 0.0
02/04:30am 22.8 25.4 20.5 87 1.5 SSW 7 11 4 6 1013.7 1013.6 0.0
02/04:00am 23.6 27.4 20.9 85 1.8 N 2 7 1 4 1013.3 1013.2 0.0
02/03:30am 23.7 28.2 21.6 88 1.4 CALM 0 0 0 0 1013.2 1013.1 0.0
02/03:00am 23.7 27.0 21.4 87 1.5 WNW 6 7 3 4 1013.1 1013.0 0.0
02/02:30am 24.4 27.3 21.7 85 1.8 N 9 15 5 8 1012.7 1012.6 0.0
02/02:00am 24.7 27.6 21.8 84 1.9 N 9 11 5 6 1013.2 1013.1 0.0
02/01:30am 24.6 27.8 21.7 84 1.9 N 7 9 4 5 1013.5 1013.4 0.0
02/01:00am 24.9 28.2 21.8 83 2.1 N 7 9 4 5 1013.6 1013.5 0.0
02/12:30am 24.9 27.3 21.6 82 2.2 NNE 11 15 6 8 1013.9 1013.8 0.0
02/12:00am 25.2 27.7 21.7 81 2.3 NNE 11 17 6 9 1014.3 1014.2 0.0
 
Date/Time
EST
Temp
°C
App
Temp
°C
Dew
Point
°C
Rel
Hum
%
Delta-T
°C
Wind Press
QNH
hPa
Press
MSL
hPa
Rain since
9am
mm
Dir  Spd
km/h
Gust
km/h
Spd
kts
Gust
kts
01/11:30pm 25.1 28.0 21.8 82 2.2 NNE 9 13 5 7 1014.4 1014.3 0.0
01/11:00pm 25.2 27.7 21.7 81 2.3 NNE 11 15 6 8 1014.5 1014.4 0.0
01/10:30pm 25.1 27.5 21.6 81 2.3 NNE 11 15 6 8 1014.5 1014.4 0.0
01/10:00pm 25.5 27.5 21.6 79 2.6 N 13 17 7 9 1014.5 1014.4 0.0
01/09:30pm 25.6 26.8 21.5 78 2.7 NNE 17 20 9 11 1014.2 1014.1 0.0
01/09:00pm 25.8 26.7 21.5 77 2.9 NNE 19 24 10 13 1014.0 1013.9 0.0
01/08:30pm 26.1 26.7 21.3 75 3.2 N 20 28 11 15 1013.8 1013.7 0.0
01/08:00pm 26.3 26.8 21.1 73 3.4 NNE 20 24 11 13 1013.7 1013.6 0.0
01/07:30pm 26.6 27.4 20.7 70 3.9 NNE 17 22 9 12 1013.3 1013.2 0.0
01/07:00pm 27.1 28.1 20.2 66 4.5 N 15 20 8 11 1013.3 1013.2 0.0
01/06:30pm 28.0 28.6 20.3 63 5.1 NNE 17 20 9 11 1012.8 1012.7 0.0
01/06:00pm 29.2 29.7 20.1 58 6.0 NNE 17 22 9 12 1012.6 1012.5 0.0
01/05:30pm 30.3 30.4 20.0 54 6.8 NE 19 24 10 13 1012.1 1012.0 0.0
01/05:00pm 31.3 31.0 20.3 52 7.3 NNE 22 28 12 15 1011.9 1011.8 0.0
01/04:30pm 32.1 31.5 19.7 48 8.2 NNE 22 30 12 16 1011.6 1011.5 0.0
01/04:00pm 33.2 33.3 20.0 45 8.8 NNE 19 26 10 14 1011.7 1011.6 0.0
01/03:30pm 34.0 33.4 18.9 41 9.9 NNE 20 26 11 14 1011.9 1011.8 0.0
01/03:00pm 34.4 34.1 19.2 40 10.0 NE 19 28 10 15 1012.0 1011.9 0.0
01/02:30pm 34.6 33.7 17.8 37 10.9 NE 19 26 10 14 1012.3 1012.2 0.0
01/02:00pm 34.3 33.1 17.1 36 11.0 NE 19 24 10 13 1012.7 1012.6 0.0
01/01:30pm 34.0 33.6 17.2 36 10.8 NE 15 28 8 15 1012.9 1012.8 0.0
01/01:00pm 34.0 34.6 16.8 35 11.0 NNE 9 19 5 10 1013.2 1013.1 0.0
01/12:30pm 33.7 33.1 16.6 36 10.8 NNW 15 26 8 14 1013.6 1013.5 0.0
01/12:00pm 32.9 32.7 16.7 38 10.3 NNE 13 22 7 12 1014.1 1014.0 0.0

Other formats

Comma delimited format used in spreadsheet applications
http://www.bom.gov.au/fwo/IDQ60801/IDQ60801.94374.axf

JavaScript Object Notation format (JSON) in row-major order
http://www.bom.gov.au/fwo/IDQ60801/IDQ60801.94374.json

Data quality

Most of these data are generated automatically and are frequently updated. Quality checks on data are not normally performed. It is possible for incorrect values to appear. Refer to information at About Latest Weather Observations and please check the disclaimer before using these data.